Impacts TAF Board
For situational awareness. Not to be used for flight planning purposes.
IDs:

KPHX - Phoenix/Sky Harbor, AZ, US

Issued at 1136 UTC 10 Aug 2022
Updated at 1442 UTC 10 Aug 2022
Potential Impact None Slight Moderate High
Time1351Z 10/15Z 10/16Z 10/17Z 10/18Z 10/19Z 10/20Z 10/21Z 10/22Z 10/23Z 11/00Z 11/01Z 11/02Z 11/03Z>>
Type OBS PRVL PRVL PRVL PRVL PRVL PRVL PRVL PRVL PRVL PRVL PRVL PRVL PRVL
VIS 10 >6 >6 >6 >6 >6 >6 >6 >6 >6 >6 >6 >6 >6
CIG 210 200 200 200 200 200 -- -- -- -- -- -- -- --
Cover BKN BKN BKN BKN BKN BKN SCT SCT SCT SCT SCT SCT SCT SCT
FltCat VFR VFR VFR VFR VFR VFR VFR VFR VFR VFR VFR VFR VFR VFR
WX -- -- -- -- -- -- -- -- -- -- -- -- -- --
WDir 110 VRB VRB VRB VRB VRB 280 280 280 280 280 280 280 280
WSpd 10 6 6 6 6 6 7 7 7 7 7 7 7 7
WGst -- -- -- -- -- -- -- -- -- -- -- -- -- --
WSHgt -- -- -- -- -- -- -- -- -- -- -- -- -- --
WSDir -- -- -- -- -- -- -- -- -- -- -- -- -- --
WSSpd -- -- -- -- -- -- -- -- -- -- -- -- -- --
Raw TAF
KPHX 101136Z 1012/1118 14008KT P6SM SCT150 BKN200
  FM101400 VRB06KT P6SM SCT100 BKN200
  FM102000 28007KT P6SM SCT250
  FM110400 13015G25KT P6SM VCTS BKN080CB BKN120
  FM110600 10010KT P6SM SCT100 BKN150


Raw METAR
KPHX 101351Z 11010KT 10SM FEW140 SCT190 BKN210 30/19 A2999 RMK AO2 SLP133 T03000189
KPHX 101251Z 10008KT 10SM FEW120 SCT140 BKN190 BKN210 29/18 A2997 RMK AO2 SLP127 T02890183
KPHX 101151Z COR 14010KT 10SM FEW120 BKN190 30/19 A2996 RMK AO2 SLP124 70007 T03000194 10333 20300 53004

METAR Board
Radar Display
Forecast Discussion
For situational awareness. Not to be used for flight planning purposes.